zoink.ch alexa rank chart, zoink.ch alexa rank daily changes

zoink.ch alexa rank chart, zoink.ch alexa rank daily changes

zoink.ch
Actual rank:
78 458

RANK HISTORY

Date Rank Diff
2018/09/26 78 458 -29 776
2018/09/25 108 234 +45 058
2018/09/24 63 176 -61 689
2018/09/23 124 865 +63 935
2018/09/22 60 930 -41 908
2018/09/21 102 838 +44 750
2018/09/20 58 088 -14 909
2018/09/19 72 997 +15 055
2018/09/18 57 942 -43 038
2018/09/17 100 980 +38 167
2018/09/16 62 813 -4 430
2018/09/15 67 243 -24 460
2018/09/14 91 703 +29 038
2018/09/13 62 665 -10 828
2018/09/12 73 493 -120 065
2018/09/11 193 558 +145 503
2018/09/10 48 055 -93 646
2018/09/09 141 701 +81 079
2018/09/08 60 622 -54 496
2018/09/07 115 118 +25 816
2018/09/06 89 302 +262
2018/09/05 89 040 +12 041
2018/09/04 76 999 +26 093
2018/09/03 50 906 -68 521
2018/09/02 119 427 +56 971
2018/09/01 62 456 -4 581
2018/08/31 67 037 +18 561
2018/08/30 48 476 -12 116
2018/08/29 60 592 -20 379
2018/08/28 80 971 +12 960
2018/08/27 68 011 -38 017
2018/08/26 106 028 +33 371
2018/08/25 72 657 -38 228
2018/08/24 110 885 +44 233
2018/08/23 66 652 -5 068
2018/08/22 71 720 -26 025
2018/08/21 97 745 +32 737
2018/08/20 65 008 -23 170
2018/08/19 88 178 +34 417
2018/08/18 53 761 -26 749
2018/08/17 80 510 +12 905
2018/08/16 67 605 -11 501
2018/08/15 79 106 +18 551
2018/08/14 60 555 +6 189
2018/08/13 54 366 -3 702
2018/08/12 58 068 -16 596
2018/08/11 74 664 +19 162
2018/08/10 55 502 -5 680
2018/08/09 61 182 -15 656
2018/08/08 76 838 -27 002
2018/08/07 103 840 +56 326
2018/08/06 47 514 -88 714
2018/08/05 136 228 +46 906
2018/08/04 89 322 +11 288
2018/08/03 78 034 -43 623
2018/08/02 121 657 +42 143
2018/08/01 79 514 -16 447
2018/07/31 95 961 +37 578
2018/07/30 58 383 -3 818
2018/07/29 62 201 -21 459
2018/07/28 83 660

WIDGET FOR YOUR SITE

DOMAINS WITH THE NEAREST RANK

Domain Rank
365greetings.com 78 453
tempmailaddress.com 78 454
senado.gob.mx 78 455
storypark.com 78 456
seexxxnow.net 78 457
zoink.ch 78 458
diwis.ru 78 459
megaresheba.com 78 460
srchmgrd.com 78 461
gogetlinks.net 78 462
selfcreation.ru 78 463

DOMAINS WITH THE NEAREST RANK BY TLD .ch

Domain Rank
jobscout24.ch 74 523
ticinonews.ch 76 547
tagblatt.ch 76 748
waffles.ch 76 906
schweizer-illustrierte.ch 77 431
zoink.ch 78 458
mycloud.ch 79 454
unisg.ch 79 742
css.ch 79 863
helsana.ch 79 920
widewalls.ch 80 522